createdAt,value
2022-09-23T00:00:43.223Z,11.63
2022-09-23T00:03:10.706Z,11.82
2022-09-23T00:05:40.516Z,10.93
2022-09-23T00:08:09.757Z,10.95
2022-09-23T00:10:37.729Z,11.70
2022-09-23T00:13:05.712Z,13.70
2022-09-23T00:15:33.813Z,11.05
2022-09-23T00:18:00.284Z,11.18
2022-09-23T00:20:28.330Z,12.20
2022-09-23T00:22:54.841Z,10.90
2022-09-23T00:25:21.317Z,11.40
2022-09-23T00:27:47.784Z,12.05
2022-09-23T00:30:14.249Z,11.45
2022-09-23T00:32:40.747Z,11.57
2022-09-23T00:35:08.988Z,11.73
2022-09-23T00:37:35.458Z,11.68
2022-09-23T00:40:02.921Z,11.13
2022-09-23T00:42:29.478Z,13.88
2022-09-23T00:44:58.017Z,12.32
2022-09-23T00:47:44.269Z,10.93
2022-09-23T00:50:42.793Z,12.48
2022-09-23T00:53:12.745Z,13.38
2022-09-23T00:55:42.986Z,12.05
2022-09-23T00:58:12.630Z,13.68
2022-09-23T01:00:39.118Z,13.70
2022-09-23T01:03:06.777Z,12.60
2022-09-23T01:05:33.877Z,12.10
2022-09-23T01:08:01.594Z,12.85
2022-09-23T01:10:41.195Z,12.23
2022-09-23T01:13:45.211Z,12.75
2022-09-23T01:16:19.761Z,13.93
2022-09-23T01:19:18.613Z,12.45
2022-09-23T01:22:09.393Z,12.00
2022-09-23T01:25:02.127Z,11.20
2022-09-23T01:27:50.144Z,13.80
2022-09-23T01:30:41.720Z,11.07
2022-09-23T01:33:21.995Z,11.98
2022-09-23T01:36:05.603Z,11.52
2022-09-23T01:38:53.085Z,11.63
2022-09-23T01:41:33.098Z,11.55
2022-09-23T01:44:26.603Z,12.32
2022-09-23T01:47:16.392Z,12.88
2022-09-23T01:49:56.919Z,11.93
2022-09-23T01:52:30.335Z,13.05
2022-09-23T01:55:20.008Z,12.32
2022-09-23T01:57:52.860Z,13.77
2022-09-23T02:00:22.280Z,13.02
2022-09-23T02:02:52.691Z,11.82
2022-09-23T02:05:25.951Z,12.48
2022-09-23T02:07:59.322Z,12.85
2022-09-23T02:10:35.963Z,13.02
2022-09-23T02:13:06.930Z,13.30
2022-09-23T02:15:36.827Z,13.68
2022-09-23T02:18:15.458Z,13.77
2022-09-23T02:20:43.341Z,11.85
2022-09-23T02:23:23.120Z,13.93
2022-09-23T02:26:08.575Z,14.30
2022-09-23T02:28:44.335Z,11.55
2022-09-23T02:31:31.741Z,12.65
2022-09-23T02:34:08.493Z,12.45
2022-09-23T02:37:01.701Z,12.88
2022-09-23T02:39:51.245Z,12.00
2022-09-23T02:42:21.712Z,11.85
2022-09-23T02:44:48.225Z,11.52
2022-09-23T02:47:16.551Z,11.32
2022-09-23T02:49:43.017Z,12.65
2022-09-23T02:52:09.627Z,11.75
2022-09-23T02:54:37.240Z,11.32
2022-09-23T02:57:06.736Z,12.27
2022-09-23T02:59:34.249Z,10.35
2022-09-23T03:02:39.828Z,10.60
2022-09-23T03:05:24.053Z,11.52
2022-09-23T03:08:25.651Z,10.90
2022-09-23T03:11:08.863Z,11.00
2022-09-23T03:14:06.632Z,11.50
2022-09-23T03:16:56.522Z,10.55
2022-09-23T03:19:42.051Z,10.40
2022-09-23T03:22:36.670Z,12.00
2022-09-23T03:25:07.611Z,11.52
2022-09-23T03:27:35.421Z,11.25
2022-09-23T03:30:02.753Z,10.10
2022-09-23T03:32:29.719Z,10.15
2022-09-23T03:35:03.763Z,10.10
2022-09-23T03:37:40.947Z,10.75
2022-09-23T03:40:10.231Z,9.88
2022-09-23T03:42:37.650Z,10.63
2022-09-23T03:45:08.240Z,10.00
2022-09-23T03:47:35.526Z,11.18
2022-09-23T03:50:01.990Z,10.98
2022-09-23T03:52:28.519Z,9.90
2022-09-23T03:54:54.967Z,9.25
2022-09-23T03:57:22.190Z,10.70
2022-09-23T03:59:51.983Z,10.02
2022-09-23T04:02:19.853Z,10.57
2022-09-23T04:04:46.424Z,10.77
2022-09-23T04:07:13.552Z,10.52
2022-09-23T04:09:40.160Z,9.75
2022-09-23T04:12:06.832Z,10.50
2022-09-23T04:14:34.793Z,11.07
2022-09-23T04:17:01.481Z,10.27
2022-09-23T04:19:28.024Z,10.43
2022-09-23T04:21:54.480Z,10.55
2022-09-23T04:24:21.715Z,10.98
2022-09-23T04:26:51.436Z,10.18
2022-09-23T04:29:17.958Z,11.25
2022-09-23T04:31:44.433Z,10.05
2022-09-23T04:34:14.271Z,10.32
2022-09-23T04:36:40.754Z,10.93
2022-09-23T04:39:07.295Z,12.18
2022-09-23T04:41:33.961Z,11.43
2022-09-23T04:44:00.729Z,14.10
2022-09-23T04:46:27.246Z,13.43
2022-09-23T04:48:53.776Z,15.25
2022-09-23T04:51:22.175Z,12.57
2022-09-23T04:53:52.038Z,13.02
2022-09-23T04:56:21.034Z,13.93
2022-09-23T04:58:47.677Z,14.98
2022-09-23T05:01:19.998Z,15.45
2022-09-23T05:03:46.805Z,14.25
2022-09-23T05:06:14.447Z,13.80
2022-09-23T05:08:41.785Z,12.05
2022-09-23T05:11:08.906Z,11.88
2022-09-23T05:13:35.440Z,12.23
2022-09-23T05:16:11.588Z,12.38
2022-09-23T05:18:43.278Z,12.43
2022-09-23T05:21:15.191Z,10.35
2022-09-23T05:23:42.354Z,12.00
2022-09-23T05:26:10.894Z,11.80
2022-09-23T05:28:39.152Z,11.38
2022-09-23T05:31:20.341Z,11.48
2022-09-23T05:33:51.627Z,11.68
2022-09-23T05:36:18.797Z,11.10
2022-09-23T05:38:45.330Z,10.82
2022-09-23T05:41:13.426Z,10.35
2022-09-23T05:43:40.977Z,10.40
2022-09-23T05:46:11.389Z,12.35
2022-09-23T05:48:38.369Z,12.00
2022-09-23T05:51:08.995Z,11.55
2022-09-23T05:53:37.426Z,12.15
2022-09-23T05:58:31.849Z,10.32
2022-09-23T06:00:58.545Z,10.38
2022-09-23T06:03:25.587Z,10.30
2022-09-23T06:05:55.694Z,9.75
2022-09-23T06:08:23.510Z,9.27
2022-09-23T06:10:54.459Z,8.82
2022-09-23T06:13:21.511Z,8.93
2022-09-23T06:15:48.958Z,8.75
2022-09-23T06:18:15.498Z,8.93
2022-09-23T06:20:41.935Z,9.45
2022-09-23T06:23:11.061Z,9.15
2022-09-23T06:25:40.798Z,8.73
2022-09-23T06:28:12.387Z,8.30
2022-09-23T06:30:39.916Z,8.32
2022-09-23T06:33:06.525Z,7.88
2022-09-23T06:35:33.242Z,8.13
2022-09-23T06:38:00.131Z,9.05
2022-09-23T06:40:26.687Z,7.88
2022-09-23T06:43:00.543Z,7.38
2022-09-23T06:45:27.412Z,7.80
2022-09-23T06:47:57.932Z,8.07
2022-09-23T06:50:28.007Z,7.18
2022-09-23T06:52:56.159Z,7.32
2022-09-23T06:55:24.360Z,6.85
2022-09-23T06:57:50.985Z,7.18
2022-09-23T07:00:17.495Z,7.32
2022-09-23T07:02:44.142Z,6.78
2022-09-23T07:05:10.720Z,7.82
2022-09-23T07:07:38.176Z,6.97
2022-09-23T07:10:05.786Z,7.32
2022-09-23T07:12:32.963Z,6.72
2022-09-23T07:14:59.425Z,7.10
2022-09-23T07:17:26.007Z,6.88
2022-09-23T07:19:54.906Z,6.88
2022-09-23T07:22:26.359Z,6.45
2022-09-23T07:24:55.925Z,7.75
2022-09-23T07:27:26.513Z,6.63
2022-09-23T07:29:53.227Z,6.22
2022-09-23T07:32:21.882Z,6.50
2022-09-23T07:34:48.729Z,6.05
2022-09-23T07:37:16.455Z,5.80
2022-09-23T07:39:43.308Z,5.85
2022-09-23T07:42:11.116Z,6.20
2022-09-23T07:44:37.581Z,6.45
2022-09-23T07:47:04.037Z,6.20
2022-09-23T07:49:30.482Z,6.68
2022-09-23T07:51:56.987Z,6.18
2022-09-23T07:54:25.442Z,5.45
2022-09-23T07:56:52.004Z,5.50
2022-09-23T07:59:18.568Z,5.95
2022-09-23T08:01:48.325Z,5.75
2022-09-23T08:04:17.949Z,5.20
2022-09-23T08:07:04.953Z,5.03
2022-09-23T08:09:33.994Z,4.45
2022-09-23T08:12:01.330Z,4.95
2022-09-23T08:14:27.829Z,4.97
2022-09-23T08:16:54.280Z,4.88
2022-09-23T08:19:20.888Z,5.55
2022-09-23T08:21:47.968Z,4.25
2022-09-23T08:24:17.138Z,5.22
2022-09-23T08:26:44.746Z,4.68
2022-09-23T08:29:18.164Z,4.72
2022-09-23T08:31:44.707Z,6.93
2022-09-23T08:34:11.550Z,5.20
2022-09-23T08:36:38.024Z,4.10
2022-09-23T08:39:04.931Z,4.30
2022-09-23T08:41:44.265Z,4.55
2022-09-23T08:44:13.993Z,4.50
2022-09-23T08:46:47.940Z,5.65
2022-09-23T08:49:20.412Z,4.60
2022-09-23T08:51:47.476Z,5.20
2022-09-23T08:54:16.979Z,4.60
2022-09-23T08:56:45.950Z,3.95
2022-09-23T08:59:17.596Z,4.00
2022-09-23T09:01:46.434Z,5.13
2022-09-23T09:04:32.460Z,4.43
2022-09-23T09:07:34.803Z,5.47
2022-09-23T09:10:03.008Z,4.05
2022-09-23T09:12:48.815Z,3.92
2022-09-23T09:15:19.907Z,4.88
2022-09-23T09:18:01.131Z,4.15
2022-09-23T09:20:50.409Z,3.95
2022-09-23T09:23:37.297Z,5.25
2022-09-23T09:26:04.557Z,4.18
2022-09-23T09:28:40.798Z,4.20
2022-09-23T09:31:22.487Z,6.65
2022-09-23T09:33:59.856Z,12.10
2022-09-23T09:36:59.173Z,12.98
2022-09-23T09:39:27.924Z,7.70
2022-09-23T09:41:58.463Z,7.38
2022-09-23T09:44:40.709Z,5.07
2022-09-23T09:47:28.897Z,6.60
2022-09-23T09:50:08.130Z,6.88
2022-09-23T09:52:38.692Z,4.07
2022-09-23T09:55:14.116Z,4.15
2022-09-23T09:58:05.663Z,5.47
2022-09-23T10:00:44.699Z,6.68
2022-09-23T10:03:13.969Z,3.63
2022-09-23T10:05:46.576Z,4.05
2022-09-23T10:08:21.902Z,6.22
2022-09-23T10:11:17.413Z,5.55
2022-09-23T10:14:12.546Z,4.28
2022-09-23T10:16:41.427Z,5.25
2022-09-23T10:19:16.881Z,3.88
2022-09-23T10:21:43.508Z,3.60
2022-09-23T10:24:21.786Z,4.10
2022-09-23T10:26:55.497Z,3.67
2022-09-23T10:32:28.337Z,4.63
2022-09-23T10:35:02.159Z,3.88
2022-09-23T10:37:37.173Z,3.80
2022-09-23T10:40:34.436Z,3.75
2022-09-23T10:43:44.315Z,3.50
2022-09-23T10:46:41.991Z,3.47
2022-09-23T10:49:43.723Z,6.78
2022-09-23T10:52:36.237Z,3.67
2022-09-23T10:55:07.917Z,3.75
2022-09-23T10:58:17.744Z,4.38
2022-09-23T11:01:02.566Z,3.00
2022-09-23T11:03:45.838Z,3.55
2022-09-23T11:06:26.530Z,3.95
2022-09-23T11:09:04.340Z,3.97
2022-09-23T11:11:48.813Z,5.22
2022-09-23T11:14:38.586Z,3.47
2022-09-23T11:17:25.843Z,3.50
2022-09-23T11:20:21.297Z,4.00
2022-09-23T11:22:58.113Z,3.58
2022-09-23T11:25:42.182Z,3.85
2022-09-23T11:28:30.408Z,5.85
2022-09-23T11:31:04.186Z,3.00
2022-09-23T11:33:44.018Z,4.25
2022-09-23T11:36:15.407Z,3.47
2022-09-23T11:38:46.689Z,11.23
2022-09-23T11:41:21.615Z,3.92
2022-09-23T11:43:52.323Z,3.25
2022-09-23T11:46:35.815Z,5.10
2022-09-23T11:49:15.468Z,3.58
2022-09-23T11:52:00.178Z,4.03
2022-09-23T11:54:31.922Z,3.45
2022-09-23T11:57:01.386Z,4.60
2022-09-23T11:59:40.583Z,5.88
2022-09-23T12:02:22.199Z,2.90
2022-09-23T12:05:08.550Z,3.42
2022-09-23T12:07:44.992Z,4.80
2022-09-23T12:10:11.889Z,3.47
2022-09-23T12:13:14.988Z,5.38
2022-09-23T12:16:03.231Z,3.80
2022-09-23T12:18:54.747Z,3.35
2022-09-23T12:21:53.051Z,3.72
2022-09-23T12:24:57.778Z,4.05
2022-09-23T12:27:25.944Z,4.28
2022-09-23T12:29:56.737Z,3.08
2022-09-23T12:32:24.618Z,4.63
2022-09-23T12:34:52.067Z,4.05
2022-09-23T12:37:27.985Z,3.97
2022-09-23T12:39:59.586Z,4.40
2022-09-23T12:42:30.747Z,3.72
2022-09-23T12:45:19.183Z,4.53
2022-09-23T12:47:45.626Z,4.05
2022-09-23T12:50:50.823Z,3.75
2022-09-23T12:53:35.420Z,5.60
2022-09-23T12:56:02.773Z,3.50
2022-09-23T12:58:57.550Z,3.60
2022-09-23T13:01:25.461Z,3.80
2022-09-23T13:04:15.610Z,4.18
2022-09-23T13:07:08.533Z,4.68
2022-09-23T13:09:41.161Z,4.63
2022-09-23T13:12:25.341Z,4.38
2022-09-23T13:14:53.962Z,6.57
2022-09-23T13:17:26.195Z,5.93
2022-09-23T13:20:06.325Z,4.53
2022-09-23T13:23:03.852Z,5.00
2022-09-23T13:25:35.024Z,5.22
2022-09-23T13:28:02.367Z,6.03
2022-09-23T13:30:28.828Z,5.47
2022-09-23T13:33:06.590Z,5.38
2022-09-23T13:35:36.747Z,6.90
2022-09-23T13:38:25.999Z,4.90
2022-09-23T13:41:13.824Z,7.15
2022-09-23T13:43:44.642Z,5.10
2022-09-23T13:46:18.210Z,4.88
2022-09-23T13:51:14.962Z,4.53
2022-09-23T13:53:41.414Z,4.28
2022-09-23T13:56:18.921Z,5.28
2022-09-23T13:58:45.371Z,3.80
2022-09-23T14:01:32.851Z,3.70
2022-09-23T14:03:59.964Z,4.15
2022-09-23T14:06:27.349Z,4.80
2022-09-23T14:08:54.336Z,3.95
2022-09-23T14:11:23.839Z,4.72
2022-09-23T14:13:54.108Z,4.25
2022-09-23T14:16:21.619Z,5.40
2022-09-23T14:18:50.127Z,4.00
2022-09-23T14:21:28.874Z,4.30
2022-09-23T14:23:55.499Z,3.70
2022-09-23T14:26:23.838Z,5.10
2022-09-23T14:28:50.461Z,6.43
2022-09-23T14:31:17.214Z,3.75
2022-09-23T14:33:43.719Z,4.95
2022-09-23T14:36:36.046Z,3.47
2022-09-23T14:39:08.276Z,5.22
2022-09-23T14:41:44.986Z,5.00
2022-09-23T14:44:22.774Z,4.40
2022-09-23T14:46:56.777Z,5.47
2022-09-23T14:49:23.521Z,6.03
2022-09-23T14:52:00.663Z,7.35
2022-09-23T14:54:27.002Z,4.35
2022-09-23T14:56:54.075Z,4.85
2022-09-23T14:59:27.214Z,5.85
2022-09-23T15:01:53.806Z,5.30
2022-09-23T15:04:23.144Z,3.95
2022-09-23T15:06:52.123Z,4.43
2022-09-23T15:09:31.717Z,5.35
2022-09-23T15:12:20.654Z,4.45
2022-09-23T15:14:55.029Z,5.10
2022-09-23T15:17:24.464Z,5.20
2022-09-23T15:19:54.241Z,4.70
2022-09-23T15:22:21.002Z,4.82
2022-09-23T15:24:47.645Z,5.40
2022-09-23T15:27:26.207Z,4.78
2022-09-23T15:29:52.881Z,5.13
2022-09-23T15:32:25.760Z,5.47
2022-09-23T15:34:52.242Z,5.38
2022-09-23T15:37:18.814Z,4.82
2022-09-23T15:39:45.268Z,7.85
2022-09-23T15:42:11.942Z,5.47
2022-09-23T15:44:38.443Z,6.18
2022-09-23T15:47:05.157Z,5.18
2022-09-23T15:49:36.709Z,4.57
2022-09-23T15:52:04.782Z,5.15
2022-09-23T15:54:34.827Z,6.20
2022-09-23T15:57:01.788Z,4.43
2022-09-23T15:59:30.956Z,5.53
2022-09-23T16:01:59.391Z,4.93
2022-09-23T16:04:28.145Z,5.90
2022-09-23T16:06:54.631Z,5.40
2022-09-23T16:09:21.170Z,6.40
2022-09-23T16:11:49.350Z,6.10
2022-09-23T16:14:20.261Z,5.70
2022-09-23T16:16:47.910Z,5.47
2022-09-23T16:19:15.572Z,5.85
2022-09-23T16:21:42.370Z,6.07
2022-09-23T16:24:15.399Z,8.68
2022-09-23T16:26:43.134Z,5.78
2022-09-23T16:29:10.549Z,6.55
2022-09-23T16:31:37.220Z,6.15
2022-09-23T16:34:03.793Z,6.93
2022-09-23T16:36:36.066Z,5.45
2022-09-23T16:39:05.706Z,6.05
2022-09-23T16:41:32.784Z,5.75
2022-09-23T16:44:01.074Z,6.05
2022-09-23T16:46:29.087Z,5.13
2022-09-23T16:48:57.473Z,6.10
2022-09-23T16:51:26.500Z,6.43
2022-09-23T16:53:54.280Z,5.38
2022-09-23T16:56:27.232Z,5.65
2022-09-23T16:58:55.005Z,5.55
2022-09-23T17:01:45.685Z,5.85
2022-09-23T17:04:13.397Z,6.13
2022-09-23T17:06:44.228Z,5.90
2022-09-23T17:09:14.317Z,7.93
2022-09-23T17:11:41.277Z,8.60
2022-09-23T17:14:10.507Z,6.80
2022-09-23T17:16:37.076Z,6.80
2022-09-23T17:19:08.005Z,9.18
2022-09-23T17:21:34.859Z,6.53
2022-09-23T17:24:01.528Z,8.25
2022-09-23T17:26:28.459Z,10.80
2022-09-23T17:28:56.303Z,8.02
2022-09-23T17:31:24.976Z,9.63
2022-09-23T17:33:52.610Z,8.43
2022-09-23T17:36:19.803Z,8.25
2022-09-23T17:38:46.925Z,8.10
2022-09-23T17:41:14.143Z,9.07
2022-09-23T17:43:40.889Z,8.60
2022-09-23T17:46:12.860Z,10.32
2022-09-23T17:48:41.297Z,9.18
2022-09-23T17:51:16.012Z,8.18
2022-09-23T17:53:45.258Z,11.02
2022-09-23T17:56:14.431Z,11.15
2022-09-23T17:58:41.177Z,8.00
2022-09-23T18:01:12.915Z,8.40
2022-09-23T18:03:43.191Z,10.23
2022-09-23T18:06:15.394Z,7.40
2022-09-23T18:08:42.964Z,11.38
2022-09-23T18:11:17.810Z,8.80
2022-09-23T18:14:07.025Z,9.40
2022-09-23T18:16:39.433Z,8.88
2022-09-23T18:19:07.377Z,7.82
2022-09-23T18:21:37.121Z,8.40
2022-09-23T18:24:30.745Z,9.70
2022-09-23T18:26:57.248Z,8.82
2022-09-23T18:29:23.726Z,10.38
2022-09-23T18:31:50.973Z,9.07
2022-09-23T18:34:18.057Z,9.85
2022-09-23T18:36:44.779Z,9.18
2022-09-23T18:39:11.514Z,9.68
2022-09-23T18:41:38.056Z,9.18
2022-09-23T18:44:04.754Z,8.60
2022-09-23T18:46:31.637Z,10.23
2022-09-23T18:49:17.737Z,12.35
2022-09-23T18:51:55.557Z,9.88
2022-09-23T18:54:23.442Z,9.55
2022-09-23T18:56:52.434Z,10.25
2022-09-23T18:59:20.855Z,10.60
2022-09-23T19:01:49.949Z,8.45
2022-09-23T19:04:19.217Z,8.68
2022-09-23T19:06:46.007Z,8.70
2022-09-23T19:09:12.989Z,8.93
2022-09-23T19:11:39.702Z,11.07
2022-09-23T19:14:10.846Z,11.43
2022-09-23T19:16:38.294Z,10.43
2022-09-23T19:19:05.685Z,10.80
2022-09-23T19:21:33.328Z,9.75
2022-09-23T19:24:05.683Z,10.52
2022-09-23T19:26:38.039Z,9.10
2022-09-23T19:29:08.306Z,8.80
2022-09-23T19:31:39.623Z,8.52
2022-09-23T19:34:10.522Z,9.35
2022-09-23T19:36:39.610Z,12.07
2022-09-23T19:39:21.047Z,12.63
2022-09-23T19:41:48.412Z,12.68
2022-09-23T19:44:15.379Z,10.63
2022-09-23T19:46:45.161Z,11.43
2022-09-23T19:49:12.072Z,11.20
2022-09-23T19:51:38.749Z,12.32
2022-09-23T19:54:07.046Z,11.15
2022-09-23T19:56:33.947Z,10.43
2022-09-23T19:59:02.879Z,10.80
2022-09-23T20:01:30.353Z,11.75
2022-09-23T20:03:56.811Z,12.00
2022-09-23T20:06:23.383Z,11.93
2022-09-23T20:08:50.133Z,12.52
2022-09-23T20:11:38.859Z,13.20
2022-09-23T20:14:06.245Z,10.02
2022-09-23T20:16:35.146Z,10.27
2022-09-23T20:19:02.861Z,10.27
2022-09-23T20:21:32.492Z,9.88
2022-09-23T20:23:59.127Z,10.63
2022-09-23T20:26:44.171Z,9.52
2022-09-23T20:29:11.226Z,12.38
2022-09-23T20:31:40.344Z,11.27
2022-09-23T20:34:08.104Z,11.38
2022-09-23T20:36:42.217Z,11.90
2022-09-23T20:39:09.870Z,11.63
2022-09-23T20:41:37.743Z,10.18
2022-09-23T20:44:12.072Z,11.95
2022-09-23T20:46:46.757Z,10.38
2022-09-23T20:49:15.207Z,11.23
2022-09-23T20:51:45.451Z,11.90
2022-09-23T20:54:17.157Z,11.55
2022-09-23T20:56:43.683Z,11.80
2022-09-23T20:59:11.334Z,20.80
2022-09-23T21:01:37.908Z,51.42
2022-09-23T21:04:05.815Z,106.07
2022-09-23T21:06:34.055Z,17.50
2022-09-23T21:09:00.796Z,24.00
2022-09-23T21:11:27.329Z,23.98
2022-09-23T21:13:54.990Z,25.10
2022-09-23T21:16:22.783Z,20.08
2022-09-23T21:18:50.353Z,19.67
2022-09-23T21:21:19.319Z,21.20
2022-09-23T21:23:46.661Z,22.40
2022-09-23T21:26:19.170Z,24.33
2022-09-23T21:28:48.299Z,19.10
2022-09-23T21:31:28.263Z,19.05
2022-09-23T21:33:56.269Z,19.83
2022-09-23T21:36:24.520Z,19.77
2022-09-23T21:38:51.251Z,23.08
2022-09-23T21:41:18.384Z,22.63
2022-09-23T21:43:44.923Z,25.00
2022-09-23T21:46:13.816Z,27.48
2022-09-23T21:48:41.953Z,22.85
2022-09-23T21:51:11.859Z,24.23
2022-09-23T21:53:39.049Z,24.95
2022-09-23T21:56:20.933Z,25.73
2022-09-23T21:58:47.972Z,21.83
2022-09-23T22:01:19.855Z,24.20
2022-09-23T22:03:52.199Z,25.17
2022-09-23T22:06:27.016Z,27.05
2022-09-23T22:08:59.022Z,25.48
2022-09-23T22:11:46.015Z,29.25
2022-09-23T22:14:13.756Z,27.30
2022-09-23T22:16:41.563Z,27.90
2022-09-23T22:19:09.447Z,27.95
2022-09-23T22:21:38.691Z,27.88
2022-09-23T22:24:07.158Z,25.30
2022-09-23T22:26:42.048Z,28.00
2022-09-23T22:29:28.564Z,27.73
2022-09-23T22:32:13.653Z,27.88
2022-09-23T22:34:50.559Z,25.83
2022-09-23T22:37:20.810Z,27.38
2022-09-23T22:39:47.296Z,27.23
2022-09-23T22:42:14.171Z,25.67
2022-09-23T22:44:40.672Z,29.00
2022-09-23T22:47:07.349Z,28.83
2022-09-23T22:49:33.915Z,30.02
2022-09-23T22:52:02.297Z,29.70
2022-09-23T22:54:33.651Z,27.88
2022-09-23T22:57:03.436Z,25.80
2022-09-23T22:59:29.941Z,24.35
2022-09-23T23:01:59.601Z,26.55
2022-09-23T23:04:26.966Z,25.70
2022-09-23T23:06:53.451Z,26.75
2022-09-23T23:09:21.684Z,25.80
2022-09-23T23:11:48.267Z,25.67
2022-09-23T23:14:16.400Z,28.17
2022-09-23T23:16:44.071Z,27.67
2022-09-23T23:19:13.472Z,29.38
2022-09-23T23:21:44.728Z,27.73
2022-09-23T23:24:16.702Z,25.08
2022-09-23T23:26:43.599Z,26.63
2022-09-23T23:29:11.760Z,28.20
2022-09-23T23:31:38.820Z,26.42
2022-09-23T23:34:08.274Z,27.88
2022-09-23T23:36:34.840Z,29.98
2022-09-23T23:39:01.526Z,27.98
2022-09-23T23:41:28.324Z,25.77
2022-09-23T23:43:57.761Z,27.77
2022-09-23T23:46:27.524Z,26.40
2022-09-23T23:48:55.200Z,25.15
2022-09-23T23:51:22.927Z,25.65
2022-09-23T23:53:49.388Z,27.35
2022-09-23T23:56:17.978Z,26.00
2022-09-23T23:58:45.050Z,27.98
